createdAt,value
2022-09-26T00:00:46.714Z,20
2022-09-26T00:01:46.704Z,20
2022-09-26T00:02:46.723Z,20
2022-09-26T00:03:46.685Z,20
2022-09-26T00:04:46.684Z,20
2022-09-26T00:05:46.659Z,20
2022-09-26T00:06:46.653Z,20
2022-09-26T00:07:46.691Z,20
2022-09-26T00:08:46.632Z,20
2022-09-26T00:09:46.619Z,20
2022-09-26T00:10:46.614Z,20
2022-09-26T00:11:46.596Z,20
2022-09-26T00:12:46.598Z,20
2022-09-26T00:13:46.588Z,20
2022-09-26T00:14:46.564Z,20
2022-09-26T00:15:46.551Z,20
2022-09-26T00:16:46.547Z,20
2022-09-26T00:17:46.552Z,20
2022-09-26T00:18:47.531Z,20
2022-09-26T00:19:46.508Z,20
2022-09-26T00:20:46.522Z,20
2022-09-26T00:21:46.499Z,20
2022-09-26T00:22:46.478Z,20
2022-09-26T00:23:46.479Z,20
2022-09-26T00:24:46.460Z,20
2022-09-26T00:25:46.463Z,20
2022-09-26T00:26:46.456Z,20
2022-09-26T00:27:46.425Z,20
2022-09-26T00:28:46.417Z,20
2022-09-26T00:29:46.408Z,20
2022-09-26T00:30:46.404Z,20
2022-09-26T00:31:46.388Z,20
2022-09-26T00:32:46.377Z,20
2022-09-26T00:33:46.365Z,20
2022-09-26T00:34:46.351Z,20
2022-09-26T00:35:46.360Z,20
2022-09-26T00:36:46.337Z,20
2022-09-26T00:37:46.323Z,20
2022-09-26T00:38:46.305Z,20
2022-09-26T00:39:46.299Z,20
2022-09-26T00:40:46.288Z,20
2022-09-26T00:41:46.275Z,20
2022-09-26T00:42:46.269Z,20
2022-09-26T00:43:46.256Z,20
2022-09-26T00:44:46.246Z,20
2022-09-26T00:45:46.231Z,20
2022-09-26T00:46:46.226Z,20
2022-09-26T00:47:46.243Z,20
2022-09-26T00:48:46.219Z,20
2022-09-26T00:49:46.189Z,20
2022-09-26T00:50:46.185Z,20
2022-09-26T00:51:46.182Z,20
2022-09-26T00:52:46.163Z,20
2022-09-26T00:53:46.148Z,20
2022-09-26T00:54:46.140Z,20
2022-09-26T00:55:46.135Z,20
2022-09-26T00:56:46.117Z,20
2022-09-26T00:57:46.104Z,20
2022-09-26T00:58:46.100Z,20
2022-09-26T00:59:46.085Z,20
2022-09-26T01:00:46.070Z,20
2022-09-26T01:01:46.064Z,20
2022-09-26T01:02:46.052Z,20
2022-09-26T01:03:46.040Z,20
2022-09-26T01:04:46.041Z,20
2022-09-26T01:05:46.037Z,20
2022-09-26T01:06:46.007Z,20
2022-09-26T01:07:45.999Z,20
2022-09-26T01:08:45.986Z,20
2022-09-26T01:09:45.978Z,20
2022-09-26T01:10:45.970Z,20
2022-09-26T01:11:45.964Z,20
2022-09-26T01:12:45.946Z,20
2022-09-26T01:13:45.937Z,20
2022-09-26T01:14:45.920Z,20
2022-09-26T01:15:45.915Z,20
2022-09-26T01:16:45.910Z,20
2022-09-26T01:17:45.904Z,20
2022-09-26T01:18:45.877Z,20
2022-09-26T01:19:45.873Z,20
2022-09-26T01:20:45.856Z,20
2022-09-26T01:21:45.850Z,20
2022-09-26T01:22:45.865Z,20
2022-09-26T01:23:45.827Z,20
2022-09-26T01:24:45.813Z,20
2022-09-26T01:25:45.806Z,20
2022-09-26T01:26:45.811Z,20
2022-09-26T01:27:45.778Z,20
2022-09-26T01:28:45.772Z,20
2022-09-26T01:29:45.761Z,20
2022-09-26T01:30:45.754Z,20
2022-09-26T01:31:45.742Z,20
2022-09-26T01:32:45.730Z,20
2022-09-26T01:33:45.754Z,20
2022-09-26T01:34:45.720Z,20
2022-09-26T01:35:45.699Z,20
2022-09-26T01:36:45.689Z,20
2022-09-26T01:37:45.671Z,20
2022-09-26T01:38:45.687Z,20
2022-09-26T01:39:45.658Z,20
2022-09-26T01:40:45.653Z,20
2022-09-26T01:41:45.627Z,20
2022-09-26T01:42:45.644Z,20
2022-09-26T01:43:45.609Z,20
2022-09-26T01:44:45.603Z,20
2022-09-26T01:45:45.600Z,20
2022-09-26T01:46:45.585Z,20
2022-09-26T01:47:45.586Z,20
2022-09-26T01:48:45.560Z,20
2022-09-26T01:49:45.562Z,20
2022-09-26T01:50:45.535Z,20
2022-09-26T01:51:45.528Z,20
2022-09-26T01:52:45.515Z,20
2022-09-26T01:53:45.507Z,20
2022-09-26T01:54:45.493Z,20
2022-09-26T01:55:45.493Z,20
2022-09-26T01:56:45.484Z,20
2022-09-26T01:57:45.465Z,20
2022-09-26T01:58:45.450Z,20
2022-09-26T01:59:45.447Z,20
2022-09-26T02:00:45.432Z,20
2022-09-26T02:01:45.425Z,20
2022-09-26T02:02:45.409Z,20
2022-09-26T02:03:45.406Z,20
2022-09-26T02:04:45.389Z,20
2022-09-26T02:05:45.394Z,20
2022-09-26T02:06:45.369Z,20
2022-09-26T02:07:45.368Z,20
2022-09-26T02:08:45.353Z,20
2022-09-26T02:09:45.334Z,20
2022-09-26T02:10:45.330Z,20
2022-09-26T02:11:45.323Z,20
2022-09-26T02:12:45.307Z,20
2022-09-26T02:13:45.297Z,20
2022-09-26T02:14:45.281Z,20
2022-09-26T02:15:45.296Z,20
2022-09-26T02:16:45.263Z,20
2022-09-26T02:17:45.254Z,20
2022-09-26T02:18:45.249Z,20
2022-09-26T02:19:45.225Z,20
2022-09-26T02:20:45.217Z,20
2022-09-26T02:21:45.209Z,20
2022-09-26T02:22:45.192Z,20
2022-09-26T02:23:45.185Z,20
2022-09-26T02:24:45.181Z,20
2022-09-26T02:25:45.171Z,20
2022-09-26T02:26:45.174Z,20
2022-09-26T02:27:45.139Z,20
2022-09-26T02:28:45.138Z,20
2022-09-26T02:29:45.124Z,20
2022-09-26T02:30:45.115Z,20
2022-09-26T02:31:45.104Z,20
2022-09-26T02:32:45.088Z,20
2022-09-26T02:33:45.075Z,20
2022-09-26T02:34:45.078Z,20
2022-09-26T02:35:45.058Z,20
2022-09-26T02:36:45.052Z,20
2022-09-26T02:37:45.048Z,20
2022-09-26T02:38:45.021Z,20
2022-09-26T02:39:45.008Z,20
2022-09-26T02:40:45.003Z,20
2022-09-26T02:41:44.994Z,20
2022-09-26T02:42:44.980Z,20
2022-09-26T02:43:44.970Z,20
2022-09-26T02:44:44.959Z,20
2022-09-26T02:45:44.951Z,20
2022-09-26T02:46:44.941Z,20
2022-09-26T02:47:44.948Z,20
2022-09-26T02:48:44.920Z,20
2022-09-26T02:49:44.908Z,20
2022-09-26T02:50:44.900Z,20
2022-09-26T02:51:44.886Z,20
2022-09-26T02:52:44.892Z,20
2022-09-26T02:53:44.866Z,20
2022-09-26T02:54:44.879Z,20
2022-09-26T02:55:44.842Z,20
2022-09-26T02:56:44.831Z,20
2022-09-26T02:57:44.817Z,20
2022-09-26T02:58:44.835Z,20
2022-09-26T02:59:44.806Z,24
2022-09-26T03:00:44.797Z,24
2022-09-26T03:01:44.788Z,24
2022-09-26T03:02:44.765Z,24
2022-09-26T03:03:44.752Z,24
2022-09-26T03:04:44.746Z,24
2022-09-26T03:05:44.738Z,24
2022-09-26T03:06:44.723Z,24
2022-09-26T03:07:44.717Z,24
2022-09-26T03:08:44.704Z,24
2022-09-26T03:09:44.694Z,24
2022-09-26T03:10:44.690Z,24
2022-09-26T03:11:44.680Z,24
2022-09-26T03:12:44.681Z,24
2022-09-26T03:13:44.648Z,24
2022-09-26T03:14:44.659Z,24
2022-09-26T03:15:44.638Z,24
2022-09-26T03:16:44.612Z,24
2022-09-26T03:17:44.604Z,24
2022-09-26T03:18:44.604Z,24
2022-09-26T03:19:44.583Z,24
2022-09-26T03:20:44.570Z,24
2022-09-26T03:21:44.561Z,24
2022-09-26T03:22:44.552Z,24
2022-09-26T03:23:44.554Z,24
2022-09-26T03:24:44.538Z,24
2022-09-26T03:25:44.522Z,24
2022-09-26T03:26:44.505Z,24
2022-09-26T03:27:44.512Z,24
2022-09-26T03:28:44.484Z,24
2022-09-26T03:29:44.478Z,24
2022-09-26T03:30:44.481Z,24
2022-09-26T03:31:44.453Z,24
2022-09-26T03:32:44.441Z,24
2022-09-26T03:33:44.432Z,24
2022-09-26T03:34:44.422Z,24
2022-09-26T03:35:44.410Z,24
2022-09-26T03:36:44.399Z,24
2022-09-26T03:37:44.387Z,24
2022-09-26T03:38:44.386Z,24
2022-09-26T03:39:44.363Z,24
2022-09-26T03:40:44.357Z,24
2022-09-26T03:41:44.346Z,24
2022-09-26T03:42:44.332Z,24
2022-09-26T03:43:44.328Z,24
2022-09-26T03:44:44.318Z,24
2022-09-26T03:45:44.299Z,24
2022-09-26T03:46:44.296Z,24
2022-09-26T03:47:44.281Z,24
2022-09-26T03:48:44.272Z,24
2022-09-26T03:49:44.300Z,24
2022-09-26T03:50:44.251Z,24
2022-09-26T03:51:44.234Z,24
2022-09-26T03:52:44.234Z,24
2022-09-26T03:53:44.230Z,24
2022-09-26T03:54:44.209Z,24
2022-09-26T03:55:44.195Z,24
2022-09-26T03:56:44.193Z,24
2022-09-26T03:57:44.184Z,24
2022-09-26T03:58:44.219Z,24
2022-09-26T03:59:44.190Z,24
2022-09-26T04:00:44.180Z,24
2022-09-26T04:01:44.144Z,24
2022-09-26T04:02:44.116Z,24
2022-09-26T04:03:44.112Z,24
2022-09-26T04:04:44.103Z,24
2022-09-26T04:05:44.086Z,24
2022-09-26T04:06:44.078Z,24
2022-09-26T04:07:44.068Z,24
2022-09-26T04:08:44.059Z,24
2022-09-26T04:09:44.045Z,24
2022-09-26T04:10:44.040Z,24
2022-09-26T04:11:44.030Z,24
2022-09-26T04:12:44.023Z,24
2022-09-26T04:13:44.012Z,24
2022-09-26T04:14:44.006Z,28
2022-09-26T04:15:43.985Z,24
2022-09-26T04:16:43.991Z,24
2022-09-26T04:17:43.962Z,24
2022-09-26T04:18:43.953Z,24
2022-09-26T04:19:43.948Z,24
2022-09-26T04:20:43.927Z,24
2022-09-26T04:21:43.922Z,24
2022-09-26T04:22:43.912Z,24
2022-09-26T04:23:43.899Z,24
2022-09-26T04:24:43.891Z,24
2022-09-26T04:25:43.876Z,24
2022-09-26T04:26:43.870Z,24
2022-09-26T04:27:43.875Z,24
2022-09-26T04:28:43.849Z,24
2022-09-26T04:29:43.836Z,24
2022-09-26T04:30:43.827Z,24
2022-09-26T04:31:43.812Z,24
2022-09-26T04:32:43.806Z,24
2022-09-26T04:33:43.791Z,24
2022-09-26T04:34:43.781Z,24
2022-09-26T04:35:43.822Z,24
2022-09-26T04:36:43.767Z,24
2022-09-26T04:37:43.755Z,24
2022-09-26T04:38:43.739Z,24
2022-09-26T04:39:43.740Z,24
2022-09-26T04:40:43.721Z,24
2022-09-26T04:41:43.706Z,24
2022-09-26T04:42:43.704Z,24
2022-09-26T04:43:43.695Z,24
2022-09-26T04:44:43.675Z,24
2022-09-26T04:45:43.669Z,24
2022-09-26T04:46:43.689Z,28
2022-09-26T04:47:43.648Z,28
2022-09-26T04:48:43.637Z,28
2022-09-26T04:49:43.656Z,28
2022-09-26T04:50:43.616Z,28
2022-09-26T04:51:43.605Z,28
2022-09-26T04:52:43.592Z,24
2022-09-26T04:53:43.579Z,28
2022-09-26T04:54:43.574Z,28
2022-09-26T04:55:43.560Z,28
2022-09-26T04:56:43.552Z,32
2022-09-26T04:57:43.540Z,28
2022-09-26T04:58:43.539Z,32
2022-09-26T04:59:43.524Z,32
2022-09-26T05:00:43.509Z,36
2022-09-26T05:01:43.513Z,32
2022-09-26T05:02:43.484Z,36
2022-09-26T05:03:43.475Z,36
2022-09-26T05:04:43.466Z,28
2022-09-26T05:05:43.460Z,32
2022-09-26T05:06:43.455Z,32
2022-09-26T05:07:43.457Z,36
2022-09-26T05:08:43.431Z,40
2022-09-26T05:09:43.433Z,40
2022-09-26T05:10:43.404Z,48
2022-09-26T05:11:43.393Z,52
2022-09-26T05:12:43.390Z,60
2022-09-26T05:13:43.378Z,64
2022-09-26T05:14:43.375Z,68
2022-09-26T05:15:43.350Z,68
2022-09-26T05:16:43.349Z,76
2022-09-26T05:17:43.353Z,88
2022-09-26T05:18:43.325Z,100
2022-09-26T05:19:43.312Z,120
2022-09-26T05:20:43.308Z,136
2022-09-26T05:21:43.302Z,156
2022-09-26T05:22:43.277Z,168
2022-09-26T05:23:43.268Z,188
2022-09-26T05:24:43.265Z,208
2022-09-26T05:25:43.246Z,236
2022-09-26T05:26:43.237Z,264
2022-09-26T05:27:43.227Z,292
2022-09-26T05:28:43.219Z,312
2022-09-26T05:29:43.218Z,332
2022-09-26T05:30:43.199Z,344
2022-09-26T05:31:43.186Z,348
2022-09-26T05:32:43.183Z,376
2022-09-26T05:33:43.165Z,388
2022-09-26T05:34:43.151Z,404
2022-09-26T05:35:43.171Z,420
2022-09-26T05:36:43.134Z,436
2022-09-26T05:37:43.127Z,456
2022-09-26T05:38:43.124Z,452
2022-09-26T05:39:43.132Z,432
2022-09-26T05:40:43.088Z,428
2022-09-26T05:41:43.080Z,448
2022-09-26T05:42:43.073Z,480
2022-09-26T05:43:43.073Z,492
2022-09-26T05:44:43.067Z,532
2022-09-26T05:45:43.047Z,608
2022-09-26T05:46:43.030Z,668
2022-09-26T05:47:43.020Z,744
2022-09-26T05:48:43.001Z,804
2022-09-26T05:49:43.000Z,772
2022-09-26T05:50:42.983Z,776
2022-09-26T05:51:42.977Z,860
2022-09-26T05:52:42.962Z,908
2022-09-26T05:53:42.957Z,924
2022-09-26T05:54:42.951Z,988
2022-09-26T05:55:42.934Z,980
2022-09-26T05:56:42.939Z,1020
2022-09-26T05:57:42.915Z,1012
2022-09-26T05:58:42.916Z,1028
2022-09-26T05:59:42.908Z,1068
2022-09-26T06:00:42.882Z,1084
2022-09-26T06:01:42.873Z,1076
2022-09-26T06:02:42.879Z,1068
2022-09-26T06:03:42.857Z,1096
2022-09-26T06:04:42.836Z,1268
2022-09-26T06:05:42.825Z,1156
2022-09-26T06:06:42.823Z,1172
2022-09-26T06:07:42.814Z,1168
2022-09-26T06:08:42.794Z,1164
2022-09-26T06:09:42.783Z,1172
2022-09-26T06:10:42.819Z,1196
2022-09-26T06:11:42.774Z,1204
2022-09-26T06:12:42.755Z,1208
2022-09-26T06:13:42.741Z,1212
2022-09-26T06:14:42.740Z,1224
2022-09-26T06:15:42.718Z,1212
2022-09-26T06:16:42.711Z,1192
2022-09-26T06:17:42.695Z,1128
2022-09-26T06:18:42.693Z,1064
2022-09-26T06:19:42.675Z,1028
2022-09-26T06:20:42.664Z,1032
2022-09-26T06:21:42.697Z,1032
2022-09-26T06:22:42.643Z,1048
2022-09-26T06:23:42.633Z,1064
2022-09-26T06:24:42.635Z,1064
2022-09-26T06:25:42.612Z,1052
2022-09-26T06:26:42.602Z,1072
2022-09-26T06:27:42.601Z,1128
2022-09-26T06:28:42.584Z,1152
2022-09-26T06:29:42.568Z,1144
2022-09-26T06:30:42.577Z,1140
2022-09-26T06:31:42.558Z,1160
2022-09-26T06:32:42.567Z,1148
2022-09-26T06:33:42.600Z,1152
2022-09-26T06:34:42.515Z,1184
2022-09-26T06:35:42.511Z,1176
2022-09-26T06:36:42.502Z,1160
2022-09-26T06:37:42.499Z,1152
2022-09-26T06:38:42.477Z,1128
2022-09-26T06:39:42.467Z,1084
2022-09-26T06:40:42.452Z,1040
2022-09-26T06:41:42.446Z,1000
2022-09-26T06:42:42.433Z,1080
2022-09-26T06:43:42.423Z,1132
2022-09-26T06:44:42.411Z,1228
2022-09-26T06:45:42.399Z,1272
2022-09-26T06:46:42.397Z,1312
2022-09-26T06:47:42.385Z,1372
2022-09-26T06:48:42.375Z,1408
2022-09-26T06:49:42.365Z,1444
2022-09-26T06:50:42.348Z,1460
2022-09-26T06:51:42.336Z,1500
2022-09-26T06:52:42.327Z,1612
2022-09-26T06:53:42.330Z,1768
2022-09-26T06:54:42.318Z,1944
2022-09-26T06:55:42.295Z,2044
2022-09-26T06:56:42.288Z,2112
2022-09-26T06:57:42.271Z,2228
2022-09-26T06:58:42.266Z,2212
2022-09-26T06:59:42.259Z,2012
2022-09-26T07:00:42.240Z,1832
2022-09-26T07:01:42.246Z,1704
2022-09-26T07:02:42.223Z,1732
2022-09-26T07:03:42.207Z,1908
2022-09-26T07:04:42.204Z,2040
2022-09-26T07:05:42.338Z,2236
2022-09-26T07:06:42.182Z,2452
2022-09-26T07:07:42.169Z,2660
2022-09-26T07:08:42.158Z,2796
2022-09-26T07:09:42.146Z,3052
2022-09-26T07:10:42.136Z,3220
2022-09-26T07:11:42.135Z,3400
2022-09-26T07:12:42.112Z,3532
2022-09-26T07:13:42.104Z,3568
2022-09-26T07:14:42.095Z,3632
2022-09-26T07:15:42.081Z,3724
2022-09-26T07:16:42.100Z,3920
2022-09-26T07:17:42.072Z,4012
2022-09-26T07:18:42.055Z,4120
2022-09-26T07:19:42.041Z,4360
2022-09-26T07:20:42.028Z,4468
2022-09-26T07:21:42.027Z,4528
2022-09-26T07:22:42.010Z,4640
2022-09-26T07:23:41.997Z,4704
2022-09-26T07:24:41.991Z,4668
2022-09-26T07:25:41.976Z,4528
2022-09-26T07:26:42.031Z,4280
2022-09-26T07:27:41.957Z,4076
2022-09-26T07:28:41.948Z,3940
2022-09-26T07:29:41.934Z,3684
2022-09-26T07:30:41.925Z,3696
2022-09-26T07:31:41.931Z,3568
2022-09-26T07:32:41.899Z,3556
2022-09-26T07:33:41.887Z,3552
2022-09-26T07:34:41.877Z,3612
2022-09-26T07:35:41.931Z,3644
2022-09-26T07:36:41.854Z,3756
2022-09-26T07:37:41.847Z,3824
2022-09-26T07:38:41.844Z,3844
2022-09-26T07:39:41.821Z,3876
2022-09-26T07:40:41.818Z,3924
2022-09-26T07:41:41.802Z,4052
2022-09-26T07:42:41.806Z,4116
2022-09-26T07:43:41.781Z,4120
2022-09-26T07:44:41.778Z,4040
2022-09-26T07:45:41.770Z,4120
2022-09-26T07:46:41.759Z,3968
2022-09-26T07:47:41.737Z,3980
2022-09-26T07:48:41.732Z,4088
2022-09-26T07:49:41.719Z,4296
2022-09-26T07:50:41.703Z,4552
2022-09-26T07:51:41.699Z,4864
2022-09-26T07:52:41.699Z,5108
2022-09-26T07:53:41.671Z,5300
2022-09-26T07:54:41.665Z,5480
2022-09-26T07:55:41.654Z,5648
2022-09-26T07:56:41.639Z,5848
2022-09-26T07:57:41.648Z,6088
2022-09-26T07:58:41.625Z,6252
2022-09-26T07:59:41.608Z,6392
2022-09-26T08:00:41.609Z,6468
2022-09-26T08:01:41.591Z,6456
2022-09-26T08:02:41.583Z,6432
2022-09-26T08:03:41.572Z,6384
2022-09-26T08:04:41.599Z,6512
2022-09-26T08:05:41.546Z,6644
2022-09-26T08:06:41.540Z,6904
2022-09-26T08:07:41.532Z,6740
2022-09-26T08:08:41.521Z,6624
2022-09-26T08:09:41.504Z,6540
2022-09-26T08:10:41.499Z,6496
2022-09-26T08:11:41.482Z,6508
2022-09-26T08:12:41.477Z,6520
2022-09-26T08:13:41.465Z,6564
2022-09-26T08:14:41.455Z,6708
2022-09-26T08:15:41.444Z,6856
2022-09-26T08:16:41.448Z,6988
2022-09-26T08:17:41.424Z,7036
2022-09-26T08:18:41.412Z,6968
2022-09-26T08:19:41.412Z,7068
2022-09-26T08:20:41.390Z,7204
2022-09-26T08:21:41.398Z,7348
2022-09-26T08:22:41.371Z,7308
2022-09-26T08:23:41.359Z,7260
2022-09-26T08:24:41.357Z,7168
2022-09-26T08:25:41.343Z,7140
2022-09-26T08:26:41.376Z,7028
2022-09-26T08:27:41.321Z,6908
2022-09-26T08:28:41.357Z,6776
2022-09-26T08:29:41.309Z,6700
2022-09-26T08:30:41.286Z,6552
2022-09-26T08:31:41.277Z,6444
2022-09-26T08:32:41.287Z,6336
2022-09-26T08:33:41.261Z,6220
2022-09-26T08:34:41.250Z,6048
2022-09-26T08:35:41.236Z,5988
2022-09-26T08:36:41.225Z,6012
2022-09-26T08:37:41.221Z,6020
2022-09-26T08:38:41.212Z,6044
2022-09-26T08:39:41.222Z,6192
2022-09-26T08:40:41.207Z,6272
2022-09-26T08:41:41.175Z,6232
2022-09-26T08:42:41.169Z,6048
2022-09-26T08:43:41.153Z,6208
2022-09-26T08:44:41.148Z,6200
2022-09-26T08:45:41.181Z,5844
2022-09-26T08:46:41.123Z,5752
2022-09-26T08:47:41.128Z,5904
2022-09-26T08:48:41.104Z,5200
2022-09-26T08:49:41.094Z,4640
2022-09-26T08:50:41.085Z,5124
2022-09-26T08:51:41.077Z,6152
2022-09-26T08:52:41.063Z,7716
2022-09-26T08:53:41.050Z,7268
2022-09-26T08:54:41.045Z,6756
2022-09-26T08:55:41.034Z,6332
2022-09-26T08:56:41.020Z,6188
2022-09-26T08:57:41.009Z,6916
2022-09-26T08:58:40.997Z,7940
2022-09-26T08:59:40.991Z,8600
2022-09-26T09:00:40.981Z,9876
2022-09-26T09:01:40.980Z,11452
2022-09-26T09:02:40.970Z,11692
2022-09-26T09:03:40.949Z,12244
2022-09-26T09:04:40.937Z,11432
2022-09-26T09:05:40.932Z,8572
2022-09-26T09:06:40.919Z,7204
2022-09-26T09:07:40.903Z,6432
2022-09-26T09:08:40.896Z,6184
2022-09-26T09:09:40.898Z,6080
2022-09-26T09:10:40.920Z,6700
2022-09-26T09:11:40.859Z,6848
2022-09-26T09:12:40.855Z,6828
2022-09-26T09:13:40.842Z,6496
2022-09-26T09:14:40.832Z,6540
2022-09-26T09:15:40.826Z,6320
2022-09-26T09:16:40.811Z,5816
2022-09-26T09:17:40.814Z,5364
2022-09-26T09:18:40.794Z,5348
2022-09-26T09:19:40.798Z,5164
2022-09-26T09:20:40.778Z,5364
2022-09-26T09:21:40.767Z,5728
2022-09-26T09:22:40.837Z,5812
2022-09-26T09:23:41.738Z,5108
2022-09-26T09:24:40.743Z,4964
2022-09-26T09:25:40.745Z,5556
2022-09-26T09:27:40.692Z,5844
2022-09-26T09:28:40.687Z,5880
2022-09-26T09:29:40.705Z,5788
2022-09-26T09:30:40.662Z,6220
2022-09-26T09:31:40.667Z,6140
2022-09-26T09:32:40.670Z,6256
2022-09-26T09:33:40.636Z,6668
2022-09-26T09:34:40.635Z,6592
2022-09-26T09:35:40.619Z,6344
2022-09-26T09:36:40.595Z,6416
2022-09-26T09:37:41.431Z,6504
2022-09-26T09:38:40.612Z,6576
2022-09-26T09:39:40.564Z,6072
2022-09-26T09:40:40.559Z,5516
2022-09-26T09:41:40.550Z,5496
2022-09-26T09:42:40.537Z,5652
2022-09-26T09:43:40.527Z,6040
2022-09-26T09:44:40.515Z,6172
2022-09-26T09:45:40.505Z,6148
2022-09-26T09:46:40.493Z,5840
2022-09-26T09:47:40.479Z,5728
2022-09-26T09:48:40.484Z,5348
2022-09-26T09:49:40.471Z,5748
2022-09-26T09:50:40.447Z,5876
2022-09-26T09:51:40.470Z,5476
2022-09-26T09:52:40.431Z,6076
2022-09-26T09:53:40.482Z,6448
2022-09-26T09:54:40.415Z,6236
2022-09-26T09:55:40.432Z,6344
2022-09-26T09:56:40.428Z,6092
2022-09-26T09:57:40.466Z,6784
2022-09-26T09:58:40.427Z,5956
2022-09-26T09:59:40.355Z,6400
2022-09-26T10:00:40.351Z,7072
2022-09-26T10:01:40.357Z,6856
2022-09-26T10:02:40.348Z,7216
2022-09-26T10:03:40.311Z,7300
2022-09-26T10:04:40.298Z,7220
2022-09-26T10:05:40.290Z,7240
2022-09-26T10:06:40.282Z,7180
2022-09-26T10:07:40.272Z,6976
2022-09-26T10:08:40.265Z,6912
2022-09-26T10:09:40.298Z,6844
2022-09-26T10:10:40.269Z,6960
2022-09-26T10:11:40.229Z,6856
2022-09-26T10:12:40.215Z,6624
2022-09-26T10:13:40.206Z,6748
2022-09-26T10:14:40.201Z,7000
2022-09-26T10:15:40.192Z,7060
2022-09-26T10:16:40.174Z,7048
2022-09-26T10:17:40.200Z,6936
2022-09-26T10:18:40.157Z,7068
2022-09-26T10:19:40.161Z,7216
2022-09-26T10:20:40.131Z,7180
2022-09-26T10:21:40.121Z,6848
2022-09-26T10:22:40.112Z,6928
2022-09-26T10:23:40.102Z,7288
2022-09-26T10:24:40.092Z,7336
2022-09-26T10:25:40.088Z,7252
2022-09-26T10:26:40.120Z,6916
2022-09-26T10:27:40.147Z,6692
2022-09-26T10:28:40.065Z,6732
2022-09-26T10:29:40.040Z,6240
2022-09-26T10:30:40.039Z,5292
2022-09-26T10:31:40.031Z,4776
2022-09-26T10:32:40.012Z,4556
2022-09-26T10:33:40.009Z,4392
2022-09-26T10:34:40.076Z,4464
2022-09-26T10:35:39.989Z,4684
2022-09-26T10:36:39.992Z,4920
2022-09-26T10:37:39.962Z,5020
2022-09-26T10:38:39.990Z,4992
2022-09-26T10:39:39.981Z,4676
2022-09-26T10:40:40.019Z,4372
2022-09-26T10:41:39.930Z,4176
2022-09-26T10:42:39.917Z,4012
2022-09-26T10:43:39.903Z,3904
2022-09-26T10:44:39.883Z,3768
2022-09-26T10:45:39.908Z,3624
2022-09-26T10:46:39.862Z,3572
2022-09-26T10:47:39.856Z,3600
2022-09-26T10:48:39.845Z,3460
2022-09-26T10:49:39.871Z,3448
2022-09-26T10:50:39.825Z,3408
2022-09-26T10:51:39.812Z,3316
2022-09-26T10:52:39.800Z,3396
2022-09-26T10:53:39.795Z,3376
2022-09-26T10:54:39.826Z,3296
2022-09-26T10:55:39.779Z,3068
2022-09-26T10:56:39.765Z,2964
2022-09-26T10:57:39.753Z,2704
2022-09-26T10:58:39.753Z,2604
2022-09-26T10:59:39.877Z,2764
2022-09-26T11:00:39.735Z,2836
2022-09-26T11:01:39.713Z,2856
2022-09-26T11:02:39.702Z,2812
2022-09-26T11:03:39.690Z,2788
2022-09-26T11:04:39.676Z,2680
2022-09-26T11:05:39.666Z,2672
2022-09-26T11:06:39.654Z,2700
2022-09-26T11:07:39.678Z,2740
2022-09-26T11:08:39.636Z,2888
2022-09-26T11:09:39.627Z,2872
2022-09-26T11:10:39.616Z,2612
2022-09-26T11:11:39.613Z,2592
2022-09-26T11:12:39.601Z,3032
2022-09-26T11:13:39.605Z,3180
2022-09-26T11:14:39.577Z,3056
2022-09-26T11:15:39.560Z,2996
2022-09-26T11:16:39.549Z,2956
2022-09-26T11:17:39.539Z,2968
2022-09-26T11:18:39.595Z,2700
2022-09-26T11:19:39.520Z,2828
2022-09-26T11:20:39.515Z,3640
2022-09-26T11:21:39.493Z,4060
2022-09-26T11:22:39.497Z,4060
2022-09-26T11:23:39.479Z,3812
2022-09-26T11:24:39.461Z,4108
2022-09-26T11:25:39.455Z,4220
2022-09-26T11:26:39.456Z,4048
2022-09-26T11:27:39.429Z,3812
2022-09-26T11:28:39.420Z,3632
2022-09-26T11:29:39.411Z,3596
2022-09-26T11:30:39.403Z,3560
2022-09-26T11:31:39.402Z,3492
2022-09-26T11:32:39.400Z,3452
2022-09-26T11:33:39.371Z,3488
2022-09-26T11:34:39.390Z,3748
2022-09-26T11:35:39.346Z,3660
2022-09-26T11:36:39.337Z,3476
2022-09-26T11:37:39.338Z,3580
2022-09-26T11:38:39.315Z,3568
2022-09-26T11:39:39.305Z,3336
2022-09-26T11:40:39.294Z,3020
2022-09-26T11:41:39.286Z,2836
2022-09-26T11:42:39.274Z,2904
2022-09-26T11:43:39.271Z,3024
2022-09-26T11:44:39.248Z,3108
2022-09-26T11:45:39.245Z,3212
2022-09-26T11:46:39.238Z,3288
2022-09-26T11:47:39.217Z,3232
2022-09-26T11:48:39.210Z,3204
2022-09-26T11:49:39.214Z,3328
2022-09-26T11:50:39.200Z,3388
2022-09-26T11:51:39.186Z,3548
2022-09-26T11:52:39.208Z,3696
2022-09-26T11:53:39.161Z,3864
2022-09-26T11:54:39.152Z,3940
2022-09-26T11:55:39.129Z,3824
2022-09-26T11:56:39.132Z,3600
2022-09-26T11:57:39.131Z,3696
2022-09-26T11:58:39.098Z,3736
2022-09-26T11:59:39.087Z,3628
2022-09-26T12:00:39.074Z,3632
2022-09-26T12:01:39.099Z,3820
2022-09-26T12:02:39.066Z,4492
2022-09-26T12:03:39.046Z,5416
2022-09-26T12:04:39.040Z,6304
2022-09-26T12:05:39.027Z,7868
2022-09-26T12:06:39.011Z,10620
2022-09-26T12:07:38.998Z,12648
2022-09-26T12:08:38.998Z,12132
2022-09-26T12:09:38.980Z,10280
2022-09-26T12:10:38.976Z,9000
2022-09-26T12:11:38.957Z,8064
2022-09-26T12:12:38.950Z,7556
2022-09-26T12:13:38.938Z,7236
2022-09-26T12:14:38.926Z,7120
2022-09-26T12:15:38.921Z,7228
2022-09-26T12:16:38.910Z,7328
2022-09-26T12:17:38.894Z,6584
2022-09-26T12:18:38.888Z,5924
2022-09-26T12:19:38.876Z,5464
2022-09-26T12:20:38.864Z,5108
2022-09-26T12:21:38.859Z,4856
2022-09-26T12:22:38.840Z,4704
2022-09-26T12:23:38.837Z,4620
2022-09-26T12:24:38.820Z,4512
2022-09-26T12:25:38.809Z,4436
2022-09-26T12:26:38.798Z,4420
2022-09-26T12:27:38.794Z,4400
2022-09-26T12:28:38.848Z,4360
2022-09-26T12:29:39.764Z,4220
2022-09-26T12:30:38.758Z,4040
2022-09-26T12:31:38.819Z,3820
2022-09-26T12:32:39.733Z,3700
2022-09-26T12:33:38.722Z,3564
2022-09-26T12:34:38.716Z,3412
2022-09-26T12:35:38.708Z,3244
2022-09-26T12:36:38.696Z,3144
2022-09-26T12:37:38.689Z,3348
2022-09-26T12:38:38.676Z,3472
2022-09-26T12:39:38.663Z,3516
2022-09-26T12:40:38.654Z,3464
2022-09-26T12:41:38.671Z,3364
2022-09-26T12:42:38.633Z,3388
2022-09-26T12:43:38.633Z,3284
2022-09-26T12:44:38.609Z,3084
2022-09-26T12:45:38.606Z,3060
2022-09-26T12:46:38.588Z,3096
2022-09-26T12:47:38.588Z,3140
2022-09-26T12:48:38.574Z,3160
2022-09-26T12:49:38.556Z,3176
2022-09-26T12:50:38.548Z,3160
2022-09-26T12:51:38.539Z,3120
2022-09-26T12:52:38.523Z,3068
2022-09-26T12:53:38.518Z,3000
2022-09-26T12:54:38.502Z,2936
2022-09-26T12:55:38.511Z,2900
2022-09-26T12:56:38.489Z,2876
2022-09-26T12:57:38.469Z,2880
2022-09-26T12:58:38.470Z,2892
2022-09-26T12:59:38.466Z,2896
2022-09-26T13:00:38.445Z,2924
2022-09-26T13:01:38.427Z,2964
2022-09-26T13:02:38.425Z,2988
2022-09-26T13:03:38.410Z,3040
2022-09-26T13:04:38.398Z,3104
2022-09-26T13:05:38.395Z,3188
2022-09-26T13:06:38.373Z,3260
2022-09-26T13:07:38.364Z,3324
2022-09-26T13:08:38.354Z,3356
2022-09-26T13:09:38.348Z,3412
2022-09-26T13:10:38.338Z,3396
2022-09-26T13:11:38.320Z,3380
2022-09-26T13:12:38.349Z,3372
2022-09-26T13:13:38.310Z,3344
2022-09-26T13:14:38.287Z,3320
2022-09-26T13:15:38.292Z,3284
2022-09-26T13:16:38.276Z,3236
2022-09-26T13:17:38.264Z,3196
2022-09-26T13:18:38.252Z,3160
2022-09-26T13:19:38.264Z,3124
2022-09-26T13:20:38.231Z,3096
2022-09-26T13:21:38.213Z,3048
2022-09-26T13:22:38.205Z,3012
2022-09-26T13:23:38.196Z,2992
2022-09-26T13:24:38.181Z,2968
2022-09-26T13:25:38.181Z,2976
2022-09-26T13:26:38.167Z,3036
2022-09-26T13:27:38.150Z,3100
2022-09-26T13:28:38.146Z,3104
2022-09-26T13:29:38.133Z,3092
2022-09-26T13:30:38.131Z,3040
2022-09-26T13:31:38.107Z,3008
2022-09-26T13:32:38.099Z,3000
2022-09-26T13:33:38.108Z,3048
2022-09-26T13:34:38.076Z,3064
2022-09-26T13:35:38.063Z,3048
2022-09-26T13:36:38.057Z,3000
2022-09-26T13:37:38.044Z,2936
2022-09-26T13:38:38.038Z,2892
2022-09-26T13:39:38.019Z,2856
2022-09-26T13:40:38.020Z,2864
2022-09-26T13:41:37.999Z,2868